Time;durP1;ratioP1;P1;durP2;ratioP2;P2;SDS_P1;SDS_P2;PMS_P1;PMS_P2;Temp;Humidity;BMP_temperature;BMP_pressure;BME280_temperature;BME280_humidity;BME280_pressure;Samples;Min_cycle;Max_cycle;Signal;HPM_P1;HPM_P2
2023/08/04 00:01:50;;;;;;;15.02;5.85;;;15.20;99.90;;;;;;4989748;28;20077;-63
2023/08/04 00:04:15;;;;;;;11.40;5.20;;;15.30;99.90;;;;;;4988658;28;20019;-63
2023/08/04 00:06:41;;;;;;;10.88;5.53;;;15.20;99.90;;;;;;4991277;28;20148;-63
2023/08/04 00:09:06;;;;;;;11.60;4.47;;;15.20;99.90;;;;;;4986598;28;20030;-66
2023/08/04 00:11:32;;;;;;;11.23;5.05;;;15.20;99.90;;;;;;4984689;28;20124;-63
2023/08/04 00:13:58;;;;;;;8.32;4.70;;;15.20;99.90;;;;;;4985954;28;20770;-64
2023/08/04 00:16:23;;;;;;;9.57;5.10;;;15.20;99.90;;;;;;4985402;28;20194;-64
2023/08/04 00:18:49;;;;;;;12.32;4.15;;;15.10;99.90;;;;;;4983767;28;20066;-65
2023/08/04 00:21:14;;;;;;;8.85;4.60;;;15.10;99.90;;;;;;4987670;28;20030;-62
2023/08/04 00:23:40;;;;;;;16.05;5.18;;;15.10;99.90;;;;;;4987297;28;20070;-65
2023/08/04 00:26:05;;;;;;;11.82;4.93;;;15.00;99.90;;;;;;4986157;28;20045;-63
2023/08/04 00:28:31;;;;;;;12.07;4.90;;;15.00;99.90;;;;;;4984703;28;20038;-63
2023/08/04 00:30:56;;;;;;;16.98;4.70;;;14.90;99.90;;;;;;4984895;28;20572;-63
2023/08/04 00:33:22;;;;;;;11.13;5.32;;;14.90;99.90;;;;;;4983848;28;20034;-64
2023/08/04 00:35:48;;;;;;;14.02;4.22;;;14.90;99.90;;;;;;4986559;28;20044;-64
2023/08/04 00:38:13;;;;;;;17.27;5.75;;;14.90;99.90;;;;;;4987348;28;20057;-64
2023/08/04 00:40:39;;;;;;;12.48;4.68;;;15.00;99.90;;;;;;4989254;28;20034;-64
2023/08/04 00:43:05;;;;;;;13.70;4.55;;;15.00;99.90;;;;;;4989925;28;20075;-64
2023/08/04 00:45:31;;;;;;;14.10;5.13;;;15.00;99.90;;;;;;4986969;28;20431;-64
2023/08/04 00:47:58;;;;;;;14.60;4.60;;;14.90;99.90;;;;;;4994060;28;20018;-64
2023/08/04 00:50:24;;;;;;;15.93;4.90;;;14.90;99.90;;;;;;4989276;28;20038;-64
2023/08/04 00:52:50;;;;;;;12.35;4.10;;;14.90;99.90;;;;;;4957801;28;20082;-65
2023/08/04 00:55:17;;;;;;;9.90;4.72;;;14.90;99.90;;;;;;4966471;28;20139;-64
2023/08/04 00:57:43;;;;;;;9.55;3.88;;;14.90;99.90;;;;;;4968461;28;20138;-62
2023/08/04 01:00:09;;;;;;;6.70;3.50;;;14.90;99.90;;;;;;4971527;28;20468;-65
2023/08/04 01:02:35;;;;;;;13.80;4.07;;;14.90;99.90;;;;;;4969998;28;20027;-66
2023/08/04 01:05:02;;;;;;;12.68;3.72;;;14.90;99.90;;;;;;4969852;28;20069;-63
2023/08/04 01:07:42;;;;;;;11.48;4.25;;;14.90;99.90;;;;;;4971994;28;20110;-64
2023/08/04 01:10:32;;;;;;;9.43;4.13;;;14.90;99.90;;;;;;4975791;28;20470;-64
2023/08/04 01:13:06;;;;;;;7.05;3.85;;;14.90;99.90;;;;;;4971417;28;20034;-63
2023/08/04 01:15:32;;;;;;;12.32;3.90;;;14.90;99.90;;;;;;4973040;28;20039;-65
2023/08/04 01:17:58;;;;;;;8.55;3.45;;;14.90;99.90;;;;;;4978308;28;20102;-63
2023/08/04 01:20:25;;;;;;;10.07;3.70;;;14.90;99.90;;;;;;4970520;28;20093;-64
2023/08/04 01:22:52;;;;;;;10.07;4.53;;;14.90;99.90;;;;;;4974027;28;20480;-64
2023/08/04 01:25:22;;;;;;;10.95;3.97;;;14.80;99.90;;;;;;4976618;28;20101;-64
2023/08/04 01:27:57;;;;;;;7.93;3.53;;;14.90;99.90;;;;;;4978321;28;20575;-66
2023/08/04 01:30:25;;;;;;;9.32;4.07;;;14.80;99.90;;;;;;4972491;28;20035;-64
2023/08/04 01:32:51;;;;;;;12.45;4.10;;;14.80;99.90;;;;;;4967502;28;20027;-65
2023/08/04 01:35:17;;;;;;;11.18;4.05;;;14.80;99.90;;;;;;4973026;28;20042;-64
2023/08/04 01:37:43;;;;;;;17.63;4.30;;;14.80;99.90;;;;;;4969174;28;20039;-65
2023/08/04 01:40:10;;;;;;;12.93;3.97;;;14.80;99.90;;;;;;4969354;28;20078;-64
2023/08/04 01:42:36;;;;;;;8.40;3.20;;;14.80;99.90;;;;;;4969875;28;20031;-66
2023/08/04 01:45:02;;;;;;;11.00;4.15;;;14.70;99.90;;;;;;4973251;28;20038;-63
2023/08/04 01:47:28;;;;;;;13.85;3.88;;;14.80;99.90;;;;;;4974617;28;20034;-64
2023/08/04 01:49:53;;;;;;;12.00;3.70;;;14.80;99.90;;;;;;4966479;28;20038;-63
2023/08/04 01:52:19;;;;;;;6.97;3.42;;;14.70;99.90;;;;;;4970430;28;20042;-64
2023/08/04 01:54:44;;;;;;;8.18;3.35;;;14.70;99.90;;;;;;4970406;28;20050;-63
2023/08/04 01:57:10;;;;;;;17.20;3.42;;;14.70;99.90;;;;;;4971835;28;20045;-63
2023/08/04 01:59:36;;;;;;;10.07;3.78;;;14.70;99.90;;;;;;4957597;28;20125;-64
2023/08/04 02:02:01;;;;;;;11.73;4.45;;;14.70;99.90;;;;;;4966244;28;20037;-66
2023/08/04 02:04:27;;;;;;;8.35;3.45;;;14.70;99.90;;;;;;4970584;28;20053;-64
2023/08/04 02:06:52;;;;;;;12.75;4.07;;;14.70;99.90;;;;;;4984843;28;20120;-64
2023/08/04 02:09:18;;;;;;;13.15;3.80;;;14.70;99.90;;;;;;4990377;28;20026;-64
2023/08/04 02:11:44;;;;;;;14.93;4.00;;;14.70;99.90;;;;;;4989553;28;20381;-65
2023/08/04 02:14:09;;;;;;;7.63;3.88;;;14.70;99.90;;;;;;4990886;28;20022;-64
2023/08/04 02:16:35;;;;;;;15.30;3.55;;;14.70;99.90;;;;;;4991336;28;20937;-65
2023/08/04 02:19:03;;;;;;;12.73;3.70;;;14.70;99.90;;;;;;4988111;28;20113;-66
2023/08/04 02:21:28;;;;;;;17.95;4.45;;;14.70;99.90;;;;;;4987073;28;20027;-65
2023/08/04 02:23:54;;;;;;;9.43;3.88;;;14.70;99.90;;;;;;4985854;28;21013;-65
2023/08/04 02:26:19;;;;;;;14.77;4.15;;;14.70;99.90;;;;;;4984688;28;20077;-65
2023/08/04 02:28:45;;;;;;;9.32;3.78;;;14.70;99.90;;;;;;4989105;28;20038;-63
2023/08/04 02:31:10;;;;;;;12.10;4.13;;;14.70;99.90;;;;;;4984352;28;20030;-64
2023/08/04 02:33:36;;;;;;;8.48;3.80;;;14.70;99.90;;;;;;4985074;28;20084;-63
2023/08/04 02:36:02;;;;;;;8.52;3.78;;;14.70;99.90;;;;;;4984030;28;20590;-64
2023/08/04 02:38:28;;;;;;;15.00;3.42;;;14.60;99.90;;;;;;4982218;28;20134;-66
2023/08/04 02:41:01;;;;;;;10.55;3.55;;;14.60;99.90;;;;;;4984737;28;20065;-65
2023/08/04 02:43:26;;;;;;;10.27;3.88;;;14.60;99.90;;;;;;4981394;28;20095;-63
2023/08/04 02:45:52;;;;;;;10.02;3.70;;;14.50;99.90;;;;;;4987267;28;20030;-64
2023/08/04 02:48:17;;;;;;;8.82;3.47;;;14.50;99.90;;;;;;4986620;28;20064;-65
2023/08/04 02:50:43;;;;;;;12.40;3.67;;;14.50;99.90;;;;;;4989554;28;20023;-64
2023/08/04 02:53:09;;;;;;;11.88;3.67;;;14.50;99.90;;;;;;4982579;28;20030;-64
2023/08/04 02:55:34;;;;;;;7.30;3.72;;;14.40;99.90;;;;;;4983268;28;20076;-64
2023/08/04 02:58:00;;;;;;;14.52;4.85;;;14.40;99.90;;;;;;4985612;28;20046;-64
2023/08/04 03:00:26;;;;;;;7.38;4.07;;;14.40;99.90;;;;;;4984055;28;20038;-66
2023/08/04 03:02:52;;;;;;;8.90;3.75;;;14.40;99.90;;;;;;4972314;28;20047;-65
2023/08/04 03:05:17;;;;;;;15.13;4.72;;;14.30;99.90;;;;;;4964166;28;20027;-64
2023/08/04 03:07:43;;;;;;;11.10;4.60;;;14.20;99.90;;;;;;4962250;28;20030;-63
2023/08/04 03:10:09;;;;;;;13.07;4.30;;;14.20;99.90;;;;;;4963867;28;20043;-63
2023/08/04 03:12:34;;;;;;;7.85;3.65;;;14.20;99.90;;;;;;4964896;28;20374;-63
2023/08/04 03:15:00;;;;;;;10.95;4.35;;;14.10;99.90;;;;;;4965803;28;20074;-66
2023/08/04 03:17:26;;;;;;;19.17;5.07;;;14.10;99.90;;;;;;4969061;28;20037;-65
2023/08/04 03:19:51;;;;;;;9.32;4.18;;;14.10;99.90;;;;;;4968977;28;20031;-65
2023/08/04 03:22:17;;;;;;;11.85;3.90;;;14.10;99.90;;;;;;4969381;28;20090;-64
2023/08/04 03:24:43;;;;;;;12.88;3.65;;;14.10;99.90;;;;;;4969428;28;20344;-65
2023/08/04 03:27:08;;;;;;;10.68;4.95;;;14.20;99.90;;;;;;4967340;28;20038;-64
2023/08/04 03:29:34;;;;;;;14.80;5.18;;;14.10;99.90;;;;;;4968816;28;20038;-64
2023/08/04 03:31:59;;;;;;;16.60;4.93;;;14.10;99.90;;;;;;4963913;28;20467;-64
2023/08/04 03:34:25;;;;;;;13.23;4.28;;;14.10;99.90;;;;;;4969587;28;20043;-65
2023/08/04 03:36:50;;;;;;;13.00;4.60;;;14.10;99.90;;;;;;4963670;28;20054;-66
2023/08/04 03:39:16;;;;;;;15.25;5.47;;;14.10;99.90;;;;;;4968082;28;20043;-63
2023/08/04 03:41:41;;;;;;;10.52;4.40;;;14.10;99.90;;;;;;4959748;28;20034;-61
2023/08/04 03:44:07;;;;;;;20.80;4.55;;;14.10;99.90;;;;;;4969135;28;20484;-63
2023/08/04 03:46:33;;;;;;;13.20;4.57;;;14.10;99.90;;;;;;4970429;28;20030;-63
2023/08/04 03:48:58;;;;;;;12.07;4.50;;;14.10;99.90;;;;;;4966790;28;20027;-64
2023/08/04 03:51:24;;;;;;;14.68;4.70;;;14.10;99.90;;;;;;4963926;28;20027;-64
2023/08/04 03:53:49;;;;;;;12.85;5.05;;;14.10;99.90;;;;;;4964093;28;20031;-61
2023/08/04 03:56:15;;;;;;;18.98;5.80;;;14.10;99.90;;;;;;4969412;28;20487;-64
2023/08/04 03:58:40;;;;;;;17.63;5.40;;;14.10;99.90;;;;;;4960673;28;20030;-63
2023/08/04 04:01:06;;;;;;;12.15;5.82;;;14.10;99.90;;;;;;4960484;28;20122;-66
2023/08/04 04:03:31;;;;;;;15.43;6.13;;;14.10;99.90;;;;;;4953767;28;20043;-63
2023/08/04 04:05:57;;;;;;;18.45;5.72;;;14.10;99.90;;;;;;4967847;28;20034;-64
2023/08/04 04:08:23;;;;;;;22.65;6.88;;;14.10;99.90;;;;;;4968588;28;20034;-64
2023/08/04 04:10:48;;;;;;;13.40;7.05;;;14.20;99.90;;;;;;4967382;28;20500;-65
2023/08/04 04:13:14;;;;;;;19.20;6.13;;;14.20;99.90;;;;;;4982692;28;20023;-63
2023/08/04 04:15:40;;;;;;;15.75;7.70;;;14.20;99.90;;;;;;4966892;28;20054;-60
2023/08/04 04:18:05;;;;;;;16.05;7.00;;;14.20;99.90;;;;;;4966773;28;20027;-64
2023/08/04 04:20:31;;;;;;;20.48;7.68;;;14.30;99.90;;;;;;4967350;28;20152;-65
2023/08/04 04:22:56;;;;;;;19.75;7.00;;;14.30;99.90;;;;;;4966559;28;20038;-64
2023/08/04 04:25:22;;;;;;;24.88;7.13;;;14.30;99.90;;;;;;4969085;28;20068;-64
2023/08/04 04:27:48;;;;;;;12.82;4.90;;;14.30;99.90;;;;;;4966957;28;20027;-65
2023/08/04 04:30:13;;;;;;;16.88;6.68;;;14.40;99.90;;;;;;4966201;28;20031;-66
2023/08/04 04:32:39;;;;;;;15.55;7.13;;;14.40;99.90;;;;;;4967263;28;20117;-62
2023/08/04 04:35:05;;;;;;;18.13;6.40;;;14.40;99.90;;;;;;4966944;28;20034;-63
2023/08/04 04:37:31;;;;;;;15.77;6.70;;;14.50;99.90;;;;;;4981441;28;20045;-63
2023/08/04 04:39:56;;;;;;;29.25;6.72;;;14.50;99.90;;;;;;4967671;28;20031;-64
2023/08/04 04:42:22;;;;;;;16.13;7.45;;;14.50;99.90;;;;;;4965765;28;20032;-63
2023/08/04 04:44:47;;;;;;;13.80;7.95;;;14.60;99.90;;;;;;4968969;28;20045;-64
2023/08/04 04:47:13;;;;;;;24.63;9.15;;;14.60;99.90;;;;;;4967366;28;20034;-65
2023/08/04 04:49:39;;;;;;;15.68;10.43;;;14.60;99.90;;;;;;4971635;28;20038;-64
2023/08/04 04:52:05;;;;;;;29.83;12.00;;;14.60;99.90;;;;;;4967935;28;20027;-64
2023/08/04 04:54:31;;;;;;;28.63;10.70;;;14.60;99.90;;;;;;4969647;28;20484;-64
2023/08/04 04:56:56;;;;;;;22.75;11.30;;;14.60;99.90;;;;;;4962717;28;20062;-65
2023/08/04 04:59:22;;;;;;;26.92;11.10;;;14.60;99.90;;;;;;4971815;28;20038;-64
2023/08/04 05:01:48;;;;;;;23.65;11.27;;;14.60;99.90;;;;;;4970187;28;20030;-63
2023/08/04 05:04:13;;;;;;;16.92;9.38;;;14.70;99.90;;;;;;4948211;28;20051;-63
2023/08/04 05:06:39;;;;;;;16.10;9.57;;;14.80;99.90;;;;;;4971673;28;20500;-65
2023/08/04 05:09:04;;;;;;;23.95;10.05;;;14.80;99.90;;;;;;4967873;28;20027;-64
2023/08/04 05:11:30;;;;;;;20.60;9.65;;;14.80;99.90;;;;;;4965502;28;20031;-64
2023/08/04 05:13:57;;;;;;;30.55;11.68;;;14.80;99.90;;;;;;4962980;28;20029;-65
2023/08/04 05:16:23;;;;;;;21.08;9.55;;;14.90;99.90;;;;;;4967435;28;20115;-63
2023/08/04 05:18:48;;;;;;;17.15;8.98;;;15.00;99.90;;;;;;4971010;28;20635;-64
2023/08/04 05:21:14;;;;;;;16.48;8.90;;;15.00;99.90;;;;;;4962652;28;20043;-63
2023/08/04 05:23:39;;;;;;;25.30;8.57;;;15.10;99.90;;;;;;4970846;28;20117;-62
2023/08/04 05:26:05;;;;;;;16.83;8.73;;;15.10;99.90;;;;;;4985181;28;20030;-66
2023/08/04 05:28:32;;;;;;;23.08;9.13;;;15.20;99.90;;;;;;4971767;28;20648;-63
2023/08/04 05:31:03;;;;;;;18.77;7.75;;;15.20;99.90;;;;;;4969945;28;20030;-64
2023/08/04 05:33:29;;;;;;;24.00;7.47;;;15.30;99.90;;;;;;4971865;28;20103;-65
2023/08/04 05:35:54;;;;;;;25.77;8.48;;;15.50;99.90;;;;;;4969956;28;20122;-64
2023/08/04 05:38:20;;;;;;;23.35;9.63;;;15.50;99.90;;;;;;4970846;28;20118;-64
2023/08/04 05:40:47;;;;;;;22.20;9.52;;;15.60;99.90;;;;;;4970493;28;20484;-64
2023/08/04 05:43:13;;;;;;;23.20;10.02;;;15.60;99.90;;;;;;4970004;28;20030;-64
2023/08/04 05:45:44;;;;;;;17.00;10.43;;;15.70;99.90;;;;;;4970472;28;20035;-65
2023/08/04 05:48:10;;;;;;;23.17;9.65;;;15.70;99.90;;;;;;4969895;28;20058;-64
2023/08/04 05:50:36;;;;;;;18.75;8.70;;;15.70;99.90;;;;;;4970582;28;20411;-65
2023/08/04 05:53:02;;;;;;;17.40;8.93;;;15.70;99.90;;;;;;4969368;28;20057;-62
2023/08/04 05:55:28;;;;;;;23.23;8.63;;;15.70;99.90;;;;;;4965175;28;20063;-63
2023/08/04 05:57:55;;;;;;;24.80;9.07;;;15.70;99.90;;;;;;4969026;28;20035;-63
2023/08/04 06:00:20;;;;;;;24.48;9.68;;;15.80;99.90;;;;;;4966474;28;20089;-66
2023/08/04 06:02:46;;;;;;;19.45;8.45;;;15.80;99.90;;;;;;4966874;28;20616;-65
2023/08/04 06:05:12;;;;;;;19.05;9.13;;;15.80;99.90;;;;;;4953549;28;20543;-63
2023/08/04 06:07:39;;;;;;;22.70;8.15;;;15.80;99.90;;;;;;4966119;28;20035;-64
2023/08/04 06:10:05;;;;;;;15.57;8.30;;;15.80;99.90;;;;;;4965208;28;20027;-64
2023/08/04 06:12:31;;;;;;;15.88;9.18;;;15.80;99.90;;;;;;4964101;28;20039;-65
2023/08/04 06:14:56;;;;;;;18.25;8.88;;;15.90;99.90;;;;;;4965119;28;20030;-64
2023/08/04 06:17:22;;;;;;;16.17;7.80;;;15.90;99.90;;;;;;4962335;28;20031;-62
2023/08/04 06:19:48;;;;;;;20.35;8.75;;;16.10;99.90;;;;;;4967193;28;20145;-64
2023/08/04 06:22:13;;;;;;;16.85;7.57;;;16.00;99.90;;;;;;4965897;28;20046;-63
2023/08/04 06:24:39;;;;;;;18.92;8.13;;;16.00;99.90;;;;;;4961862;28;20160;-65
2023/08/04 06:27:05;;;;;;;36.00;9.07;;;15.90;99.90;;;;;;4962745;28;20027;-64
2023/08/04 06:29:31;;;;;;;16.05;9.57;;;15.80;99.90;;;;;;4970088;28;20054;-64
2023/08/04 06:31:57;;;;;;;19.17;9.07;;;15.80;99.90;;;;;;4969816;28;20057;-64
2023/08/04 06:34:22;;;;;;;18.48;9.60;;;15.90;99.90;;;;;;4962248;28;20573;-63
2023/08/04 06:36:48;;;;;;;17.60;8.85;;;16.00;99.90;;;;;;4959449;28;20042;-64
2023/08/04 06:39:14;;;;;;;20.08;9.77;;;16.10;99.90;;;;;;4965526;28;20031;-63
2023/08/04 06:41:41;;;;;;;22.75;9.98;;;16.30;99.90;;;;;;4967719;28;20489;-63
2023/08/04 06:44:07;;;;;;;19.98;10.20;;;16.30;99.90;;;;;;4968578;28;20489;-66
2023/08/04 06:46:32;;;;;;;18.90;10.98;;;16.40;99.90;;;;;;4967540;28;20037;-64
2023/08/04 06:48:58;;;;;;;21.00;10.63;;;16.40;99.90;;;;;;4964507;28;20026;-63
2023/08/04 06:51:23;;;;;;;18.85;10.10;;;16.60;99.90;;;;;;4968193;28;20058;-64
2023/08/04 06:53:49;;;;;;;19.25;11.27;;;16.70;99.90;;;;;;4968171;28;20163;-63
2023/08/04 06:56:14;;;;;;;16.60;9.98;;;16.80;99.90;;;;;;4967563;28;20035;-63
2023/08/04 06:58:40;;;;;;;15.98;9.02;;;17.00;99.90;;;;;;4968896;28;20031;-64
2023/08/04 07:01:05;;;;;;;19.40;10.05;;;17.10;99.90;;;;;;4967544;28;20027;-64
2023/08/04 07:03:31;;;;;;;23.05;10.65;;;17.30;99.90;;;;;;4964972;28;20042;-64
2023/08/04 07:05:57;;;;;;;22.33;9.45;;;17.20;99.90;;;;;;4957817;28;20109;-64
2023/08/04 07:08:22;;;;;;;18.05;10.60;;;17.30;99.90;;;;;;4966290;28;20496;-64
2023/08/04 07:10:48;;;;;;;18.98;9.93;;;17.40;99.90;;;;;;4964178;28;20046;-64
2023/08/04 07:13:13;;;;;;;18.63;9.63;;;17.60;99.90;;;;;;4962070;28;20030;-66
2023/08/04 07:15:39;;;;;;;20.48;8.98;;;17.60;99.90;;;;;;4965279;28;20037;-62
2023/08/04 07:18:05;;;;;;;16.05;8.40;;;17.60;99.90;;;;;;4970651;28;20069;-62
2023/08/04 07:20:31;;;;;;;18.02;8.00;;;17.60;99.90;;;;;;4967370;28;20030;-65
2023/08/04 07:22:57;;;;;;;21.50;9.35;;;17.70;99.90;;;;;;4969872;28;20106;-63
2023/08/04 07:25:22;;;;;;;17.88;8.55;;;17.70;99.90;;;;;;4965300;28;20185;-64
2023/08/04 07:27:48;;;;;;;16.10;6.88;;;17.60;99.90;;;;;;4961225;28;20038;-65
2023/08/04 07:30:15;;;;;;;13.85;6.75;;;17.70;99.90;;;;;;4965937;28;20046;-64
2023/08/04 07:32:40;;;;;;;14.27;6.97;;;18.20;99.90;;;;;;4965252;28;20030;-66
2023/08/04 07:35:06;;;;;;;13.85;6.28;;;18.90;99.90;;;;;;4962194;28;20046;-65
2023/08/04 07:37:32;;;;;;;12.57;6.53;;;19.80;99.90;;;;;;4972916;28;20023;-65
2023/08/04 07:39:58;;;;;;;9.80;5.13;;;20.00;99.90;;;;;;4970928;28;20046;-64
2023/08/04 07:42:25;;;;;;;9.25;5.18;;;20.60;99.90;;;;;;4962762;28;20023;-65
2023/08/04 07:44:51;;;;;;;8.05;4.60;;;20.90;99.90;;;;;;4972722;28;20041;-65
2023/08/04 07:47:16;;;;;;;14.75;6.43;;;21.00;99.90;;;;;;4973848;28;20492;-64
2023/08/04 07:49:42;;;;;;;10.63;4.68;;;20.90;99.90;;;;;;4968094;28;20042;-61
2023/08/04 07:52:07;;;;;;;11.38;5.22;;;21.00;99.90;;;;;;4959443;28;20047;-64
2023/08/04 07:54:34;;;;;;;10.88;5.18;;;20.90;99.90;;;;;;4967509;28;20034;-65
2023/08/04 07:57:01;;;;;;;8.80;4.57;;;21.10;99.90;;;;;;4973009;28;20417;-66
2023/08/04 07:59:27;;;;;;;10.20;4.15;;;21.10;99.90;;;;;;4968197;28;20034;-64
2023/08/04 08:01:53;;;;;;;11.48;4.22;;;21.00;99.90;;;;;;4971693;28;20045;-65
2023/08/04 08:04:18;;;;;;;9.82;4.50;;;20.80;99.90;;;;;;4966268;28;20098;-64
2023/08/04 08:06:44;;;;;;;7.95;4.65;;;20.80;99.90;;;;;;4959477;28;20065;-65
2023/08/04 08:09:11;;;;;;;13.10;4.10;;;20.70;99.90;;;;;;4970154;28;20031;-64
2023/08/04 08:11:37;;;;;;;8.90;3.10;;;20.60;99.90;;;;;;4973011;28;20023;-65
2023/08/04 08:14:03;;;;;;;9.20;3.83;;;20.80;99.90;;;;;;4967957;28;20050;-65
2023/08/04 08:16:29;;;;;;;11.35;3.92;;;20.80;99.90;;;;;;4973431;28;20054;-65
2023/08/04 08:18:54;;;;;;;7.78;2.90;;;20.80;99.90;;;;;;4970671;28;20038;-64
2023/08/04 08:21:20;;;;;;;11.07;3.70;;;20.80;99.90;;;;;;4967014;28;20477;-64
2023/08/04 08:23:45;;;;;;;8.35;2.65;;;20.80;99.90;;;;;;4968563;28;20160;-62
2023/08/04 08:26:11;;;;;;;8.45;2.47;;;21.20;99.90;;;;;;4970499;28;20037;-65
2023/08/04 08:28:37;;;;;;;7.85;2.70;;;21.80;99.90;;;;;;4970399;28;20090;-66
2023/08/04 08:31:02;;;;;;;11.68;3.33;;;22.10;99.90;;;;;;4963480;28;20086;-66
2023/08/04 08:33:28;;;;;;;10.02;3.00;;;22.30;99.90;;;;;;4966205;28;20035;-64
2023/08/04 08:35:55;;;;;;;10.25;3.13;;;22.40;99.90;;;;;;4967445;28;20405;-64
2023/08/04 08:38:20;;;;;;;8.82;3.15;;;22.20;99.90;;;;;;4963295;28;20058;-65
2023/08/04 08:40:49;;;;;;;14.80;3.60;;;21.90;99.90;;;;;;4960420;28;20173;-64
2023/08/04 08:43:15;;;;;;;6.38;2.97;;;21.40;99.90;;;;;;4967029;28;20114;-63
2023/08/04 08:45:43;;;;;;;7.57;3.10;;;20.90;99.90;;;;;;4971288;28;20706;-64
2023/08/04 08:48:10;;;;;;;12.38;3.45;;;20.50;99.90;;;;;;4969613;28;20026;-65
2023/08/04 08:50:38;;;;;;;11.95;3.95;;;20.30;99.90;;;;;;4966428;28;20061;-65
2023/08/04 08:53:14;;;;;;;9.88;3.42;;;20.30;99.90;;;;;;4972534;28;20484;-62
2023/08/04 08:55:44;;;;;;;15.15;3.90;;;20.00;99.90;;;;;;4971868;28;20523;-66
2023/08/04 08:58:11;;;;;;;11.15;3.83;;;19.90;99.90;;;;;;4961690;28;20031;-66
2023/08/04 09:00:36;;;;;;;8.68;3.28;;;19.50;99.90;;;;;;4971942;28;20647;-67
2023/08/04 09:03:05;;;;;;;7.38;3.28;;;19.20;99.90;;;;;;4958627;28;20032;-65
2023/08/04 09:05:32;;;;;;;12.82;3.38;;;19.10;99.90;;;;;;4945276;28;20054;-65
2023/08/04 09:07:58;;;;;;;7.55;3.05;;;18.90;99.90;;;;;;4960997;28;20557;-63
2023/08/04 09:10:23;;;;;;;10.52;2.70;;;19.00;99.90;;;;;;4970321;28;20023;-64
2023/08/04 09:12:51;;;;;;;11.23;3.53;;;19.10;99.90;;;;;;4970917;28;20027;-65
2023/08/04 09:15:17;;;;;;;10.63;3.55;;;19.00;99.90;;;;;;4969925;28;20114;-65
2023/08/04 09:17:44;;;;;;;7.28;3.13;;;18.90;99.90;;;;;;4962261;28;20106;-61
2023/08/04 09:20:26;;;;;;;12.30;3.85;;;18.80;99.90;;;;;;4961756;28;20023;-64
2023/08/04 09:22:52;;;;;;;6.75;2.75;;;18.60;99.90;;;;;;4957821;28;20062;-65
2023/08/04 09:25:18;;;;;;;8.13;3.35;;;18.50;99.90;;;;;;4966929;28;20042;-64
2023/08/04 09:27:49;;;;;;;6.63;3.40;;;18.30;99.90;;;;;;4960221;28;20114;-64
2023/08/04 09:30:15;;;;;;;7.07;3.13;;;18.60;99.90;;;;;;4965610;28;20115;-65
2023/08/04 09:32:43;;;;;;;6.25;2.75;;;18.60;99.90;;;;;;4968571;28;20652;-63
2023/08/04 09:35:09;;;;;;;7.72;2.80;;;18.80;99.90;;;;;;4963195;28;20050;-65
2023/08/04 09:37:36;;;;;;;11.43;2.67;;;18.90;99.90;;;;;;4963558;28;20034;-64
2023/08/04 09:40:04;;;;;;;7.05;2.33;;;18.90;99.90;;;;;;4970320;28;20038;-65
2023/08/04 09:42:31;;;;;;;9.13;2.50;;;18.80;99.90;;;;;;4967587;28;20037;-64
2023/08/04 09:44:56;;;;;;;8.60;3.13;;;18.90;99.90;;;;;;4970076;28;20098;-64
2023/08/04 09:47:27;;;;;;;10.57;2.72;;;18.90;99.90;;;;;;4967845;28;20110;-64
2023/08/04 09:49:54;;;;;;;6.75;2.40;;;19.00;99.90;;;;;;4964077;28;20028;-64
2023/08/04 09:52:25;;;;;;;8.38;2.78;;;19.30;99.90;;;;;;4968665;28;20026;-63
2023/08/04 09:54:53;;;;;;;9.48;2.03;;;19.40;99.90;;;;;;4966993;28;20031;-63
2023/08/04 09:57:22;;;;;;;7.47;2.58;;;19.50;99.90;;;;;;4967507;28;20042;-63
2023/08/04 09:59:48;;;;;;;12.75;3.70;;;19.60;99.90;;;;;;4966084;28;20031;-62
2023/08/04 10:02:14;;;;;;;14.07;2.70;;;19.80;99.90;;;;;;4966528;28;20039;-63
2023/08/04 10:04:41;;;;;;;7.72;2.72;;;19.80;99.90;;;;;;4962180;28;20070;-64
2023/08/04 10:07:10;;;;;;;6.50;2.45;;;19.70;99.90;;;;;;4948565;28;20098;-65
2023/08/04 10:09:36;;;;;;;9.80;2.88;;;19.80;99.90;;;;;;4968021;28;20089;-64
2023/08/04 10:12:02;;;;;;;5.78;2.35;;;20.00;99.90;;;;;;4971164;28;20491;-64
2023/08/04 10:14:28;;;;;;;10.20;2.20;;;20.10;99.90;;;;;;4967931;28;20031;-64
2023/08/04 10:16:54;;;;;;;5.28;2.10;;;20.20;99.90;;;;;;4958403;28;20027;-63
2023/08/04 10:19:23;;;;;;;5.05;2.22;;;20.30;99.90;;;;;;4967626;28;20041;-63
2023/08/04 10:21:49;;;;;;;9.77;2.72;;;20.40;99.90;;;;;;4958108;28;20370;-63
2023/08/04 10:24:20;;;;;;;3.40;2.00;;;20.30;99.90;;;;;;4966787;28;20030;-65
2023/08/04 10:26:52;;;;;;;9.93;2.25;;;20.70;99.90;;;;;;4966718;28;20034;-64
2023/08/04 10:29:19;;;;;;;9.37;2.03;;;20.90;99.90;;;;;;4970700;28;20511;-62
2023/08/04 10:31:45;;;;;;;8.15;2.20;;;20.80;99.90;;;;;;4968928;28;20031;-58
2023/08/04 10:34:29;;;;;;;7.07;1.92;;;20.60;99.90;;;;;;4963442;28;20030;-63
2023/08/04 10:37:12;;;;;;;5.53;2.30;;;20.70;99.90;;;;;;4967990;28;20038;-63
2023/08/04 10:39:40;;;;;;;6.97;2.97;;;20.50;99.90;;;;;;4967375;28;21961;-64
2023/08/04 10:42:09;;;;;;;6.75;2.45;;;20.30;99.90;;;;;;4967070;28;20042;-65
2023/08/04 10:44:55;;;;;;;3.90;1.80;;;20.30;99.90;;;;;;4963332;28;20041;-62
2023/08/04 10:47:33;;;;;;;3.85;2.05;;;20.20;99.90;;;;;;4966653;28;20039;-63
2023/08/04 10:50:00;;;;;;;4.38;1.75;;;20.10;99.90;;;;;;4963066;28;20085;-63
2023/08/04 10:52:26;;;;;;;5.47;2.00;;;20.30;99.90;;;;;;4964780;28;20095;-63
2023/08/04 10:54:53;;;;;;;7.32;2.13;;;20.30;99.90;;;;;;4983586;28;20085;-63
2023/08/04 10:57:21;;;;;;;10.65;2.70;;;20.50;99.90;;;;;;4970364;28;20027;-65
2023/08/04 10:59:47;;;;;;;7.32;2.08;;;20.50;99.90;;;;;;4967436;28;20437;-63
2023/08/04 11:02:19;;;;;;;5.07;1.83;;;20.60;99.90;;;;;;4962231;28;20081;-64
2023/08/04 11:04:45;;;;;;;6.32;2.08;;;20.70;99.90;;;;;;4970500;28;20029;-65
2023/08/04 11:07:12;;;;;;;3.50;2.08;;;21.20;99.90;;;;;;4965423;28;20049;-63
2023/08/04 11:09:38;;;;;;;7.10;1.80;;;21.50;99.90;;;;;;4965461;28;20042;-63
2023/08/04 11:12:08;;;;;;;5.93;1.67;;;21.60;99.90;;;;;;4966573;28;20750;-63
2023/08/04 11:14:37;;;;;;;6.57;1.80;;;21.40;99.90;;;;;;4972624;28;20038;-64
2023/08/04 11:17:10;;;;;;;5.13;2.00;;;21.50;99.90;;;;;;4968504;28;20062;-64
2023/08/04 11:19:36;;;;;;;6.70;1.98;;;21.40;99.90;;;;;;4968020;28;20031;-63
2023/08/04 11:22:16;;;;;;;7.28;2.42;;;21.70;99.90;;;;;;4971261;28;20642;-64
2023/08/04 11:24:42;;;;;;;6.28;2.13;;;22.00;99.90;;;;;;4965673;28;20130;-64
2023/08/04 11:27:10;;;;;;;5.25;2.33;;;22.10;99.90;;;;;;4969006;28;20027;-61
2023/08/04 11:29:36;;;;;;;6.57;2.10;;;22.10;99.90;;;;;;4969085;28;20070;-64
2023/08/04 11:32:15;;;;;;;5.97;2.20;;;22.10;99.90;;;;;;4972978;28;20034;-63
2023/08/04 11:34:41;;;;;;;5.93;2.08;;;22.20;99.90;;;;;;4967806;28;20034;-63
2023/08/04 11:37:07;;;;;;;5.68;1.55;;;22.30;99.90;;;;;;4971687;28;20033;-64
2023/08/04 11:39:35;;;;;;;8.70;1.98;;;22.40;99.90;;;;;;4968695;28;20038;-64
2023/08/04 11:42:01;;;;;;;4.07;1.65;;;22.40;99.90;;;;;;4966652;28;20027;-64
2023/08/04 11:44:27;;;;;;;5.47;2.13;;;22.30;99.90;;;;;;4971046;28;20039;-64
2023/08/04 11:46:52;;;;;;;4.75;2.30;;;22.30;99.90;;;;;;4969649;28;20078;-65
2023/08/04 11:49:18;;;;;;;8.45;2.22;;;22.70;99.90;;;;;;4971161;28;20031;-62
2023/08/04 11:51:44;;;;;;;6.70;1.80;;;22.70;99.90;;;;;;4967439;28;20035;-62
2023/08/04 11:54:23;;;;;;;6.70;2.15;;;22.50;99.90;;;;;;4970102;28;20027;-63
2023/08/04 11:56:54;;;;;;;5.15;1.90;;;22.10;99.90;;;;;;4971626;28;20122;-64
2023/08/04 11:59:20;;;;;;;4.32;1.65;;;21.80;99.90;;;;;;4968497;28;20027;-64
2023/08/04 12:01:45;;;;;;;10.40;2.30;;;21.50;99.90;;;;;;4964140;28;20026;-62
2023/08/04 12:04:24;;;;;;;6.53;2.17;;;21.00;99.90;;;;;;4965689;28;20093;-62
2023/08/04 12:07:01;;;;;;;8.93;2.92;;;20.50;99.90;;;;;;4950540;28;20054;-63
2023/08/04 12:09:27;;;;;;;6.55;2.20;;;20.10;99.90;;;;;;4969370;28;20404;-63
2023/08/04 12:11:53;;;;;;;9.02;2.72;;;19.60;99.90;;;;;;4970118;28;20062;-63
2023/08/04 12:14:22;;;;;;;6.75;2.80;;;19.40;99.90;;;;;;4970007;28;20046;-62
2023/08/04 12:16:58;;;;;;;11.10;2.42;;;19.30;99.90;;;;;;4970699;28;20042;-63
2023/08/04 12:19:29;;;;;;;7.40;2.67;;;19.20;99.90;;;;;;4969743;28;20035;-63
2023/08/04 12:22:00;;;;;;;5.25;2.50;;;19.20;99.90;;;;;;4964254;28;20031;-63
2023/08/04 12:24:28;;;;;;;6.30;2.60;;;19.20;99.90;;;;;;4968648;28;20075;-62
2023/08/04 12:26:54;;;;;;;5.32;2.83;;;19.30;99.90;;;;;;4963746;28;20045;-63
2023/08/04 12:29:20;;;;;;;9.48;2.92;;;19.30;99.90;;;;;;4961195;28;20038;-63
2023/08/04 12:31:46;;;;;;;5.85;2.38;;;19.50;99.90;;;;;;4963131;28;20027;-57
2023/08/04 12:34:12;;;;;;;5.47;2.42;;;19.70;99.90;;;;;;4954883;28;20405;-63
2023/08/04 12:36:38;;;;;;;6.35;2.63;;;19.80;99.90;;;;;;4965874;28;20035;-63
2023/08/04 12:39:05;;;;;;;7.97;2.47;;;19.90;99.90;;;;;;4965089;28;20085;-63